Пашковский

Карта отелей и гостиниц, располагающихся рядом с аэропортом Пашковский :

Пашковский
Краснодар
Краснодарский край 45° 2' 6" N, 39° 10' 12" E
Код аэродрома ИКАО
URKK
Код аэродрома RU
УРКК
Координаты
N45.03500° E039.17000°
Превышение над уровнем моря
36
Основная полоса
05R/23L
Курс магнитный
046/226
Длина основной ВПП
3000
Ширина основной ВПП
45
Покрытие основной ВПП
Твёрдое (асфальтобетон)
Освещение ВПП
Постоянное
Тип: 
Аэродром
Класс аэродрома: 
Международный
Принадлежность: 
ГА
Статус: 
Действующий
Сайт: 
http://www.basel.aero/
E-mail аэродрома: 
info@krr.basel.aero, airport@airport-krr.ru
Страна: 
Россия
Регион: 
Краснодарский край
Город: 
Краснодар
Дополнительная информация: 
Эксплуатант: ОАО «Международный аэропорт Краснодар». Входит в авиационный холдинг «Базэл Аэро». В настоящее время взлет и посадка самолетов осуществляются с временной ИВПП05С-23С (реконструированная МРД), производятся работы по строительству РД-2 и РД-3а. Заруливание самолетов на стоянки осуществляется с ИВПП 05L-23R
Схемы аэропортов: 
Погода: 

Авиационная погода в Краснодаре

Регион: 
Погода METAR: 
URKK 271500Z 23006MPS CAVOK 08/03 Q1016 R23L/CLRD70 TEMPO 22012G17MPS RMK QFE759
Время наблюдения
2021-02-27T15:00:00Z
Температура C
8.0
Точка росы
3.0
Направление ветра
230
Скорость ветра (узлы)
12
Метео видимость
6.21
Явления погоды
Условия полета
VFR
Аэропорт подробнее: 

Найти трансфер

С помощью этой формы Вы можете найти трансфер из аэропорта Пашковский в город, аэропорт или вокзал:

Карта места

Javascript is required to view this map.

Погода в аэропортах:

Авиационная погода в Екатеринбурге

Регион: 
Погода METAR: 
USSS 271500Z 11007MPS 3600 -SN DRSN SCT036 M19/M22 Q1012 R08R/820350 NOSIG RMK QFE739/0986
Время наблюдения
2021-02-27T15:00:00Z
Температура C
-19.0
Точка росы
-22.0
Направление ветра
110
Скорость ветра (узлы)
14
Метео видимость
2.24
Явления погоды
-SN DRSN
Условия полета
IFR
Аэропорт подробнее: 

Авиационная погода в Минске

Регион: 
Погода METAR: 
UMMS 271439Z 32007G10MPS 6000 -RA BKN008 BKN017 02/01 Q1019 R31R/290050 R31L/////// NOSIG
Время наблюдения
2021-02-27T14:39:00Z
Температура C
2.0
Точка росы
1.0
Направление ветра
320
Скорость ветра (узлы)
14
Метео видимость
3.73
Явления погоды
-RA
Условия полета
IFR
Аэропорт подробнее: 

Авиационная погода в Магнитогорске

Погода METAR: 
USCM 271500Z 34006MPS 5000 -SN OVC009 M19/M22 Q1006 R18/450540 TEMPO 0500 +SN VV002 RMK QFE717
Время наблюдения
2021-02-27T15:00:00Z
Температура C
-19.0
Точка росы
-22.0
Направление ветра
340
Скорость ветра (узлы)
12
Метео видимость
3.11
Явления погоды
-SN
Условия полета
IFR
Аэропорт подробнее: 

Авиационная погода в Лаппеэнранта

Регион: 
Погода METAR: 
EFLP 301350Z AUTO 13006KT 100V170 9999 -SHSN BKN003 OVC028 00/M00 Q1018
Время наблюдения
2020-11-30T13:50:00Z
Температура C
0.0
Точка росы
0.0
Направление ветра
130
Скорость ветра (узлы)
6
Метео видимость
6.21
Явления погоды
-SHSN
Условия полета
LIFR